Heaters, WV (26627)

3:25 AM EDT en Septiembre 16, 2014 (GMT -0400)
Grapevine Circle | Change Station
CLOSE
Current Station
Estación meteorológica personal
Location: Gassaway, WV
Altura: 1270 ft
Estaciones meteorológicas cercanas

Alt 1270 ft 38.66 °N, 80.74 °W | Updated 5 minutes ago

Nublado
Nublado
61.0 ° F
Sensación térmica 61.0 ° F
N
0.0
Viento Variable Viento desde SSO
Gusts 1.0 mph

Hoy
Alta -- | Baja -- ° F
--% Posibilidad de precipitaciones
Ayer
Alta -- | Baja -- ° F
Precip. -- pul
7:04 AM 7:29 PM
Gibosa menguante, 48% visible
Presión 30.08 pul
Visibilidad 10.0 Millas
Nubes Nubes dispersas 1600 ft
Muy nublado 3900 ft
Muy nublado 4900 ft
Punto de rocío 59 ° F
Humedad 94%
Precipitaciones 0.00 pul
Espesor de la nieve No disponible.
UV 0 de una escala de 12
Polen 4.60 de una escala de 12
Calidad del aire No disponible.
Flu Activity No disponible.
METAR KW22 160715Z AUTO 23007KT 10SM SCT016 BKN039 BKN049 15/15 A3008 RMK AO2

More Conditions Fewer Conditions

Presión 30.08 pul
Visibilidad 10.0 Millas
Nubes Nubes dispersas 1600 ft
Muy nublado 3900 ft
Muy nublado 4900 ft
Punto de rocío 59 ° F
Humedad 94%
Precipitaciones 0.00 pul
Espesor de la nieve No disponible.
UV 0 de una escala de 12
Polen 4.60 de una escala de 12
Calidad del aire No disponible.
Flu Activity No disponible.
METAR KW22 160715Z AUTO 23007KT 10SM SCT016 BKN039 BKN049 15/15 A3008 RMK AO2

More Conditions Fewer Conditions

10-Day Weather Forecast

Almanac

Astronomía

Sep. 16, 2014 Salida Puesta
Hora real 7:04 AM EDT 7:29 PM EDT
Crepúsculo civil 6:38 AM EDT 7:55 PM EDT
Crepúsculo náutico 6:06 AM EDT 8:27 PM EDT
Crepúsculo astronómico 5:34 AM EDT 8:59 PM EDT
Luna 12:16 AM EDT 2:49 PM EDT
Horas de luz 13h 17m
Horas de luz
12h 24m
Tomorrow will be 2m 29s shorter.
Gibosa menguante, 48% of the Moon is Illuminated
Hoy
Gibosa menguante
Sep 24
Nueva
Oct 1
Cuarto creciente
Oct 8
Luna llena
Oct 15
Cuarto menguante

Extremos de hoy

Máximos del estado Bajos del estado

Community

WunderPhotos

Upload Photos

1,753,699 ¡fotos cargadas!

Nearby

Grosos de nieve

Estación Profundido Altura
No tenemos constancia de nieve nueva.

Actividad de terremotos

Ciudad Distance Mag. Tiempo y dato
No hay informes recientes de la actividad sísmica.
Magnitud mínima muestra es 2,5.

Temperaturas de aguas costeras

Lugar Temperatura
Sin partes meteorológicos de las estaciones

Estaciones meteorológicas cercanas